Luanco, Spain
Current Conditions -  °F | °C
As of 7:00 AM on Thursday 23 Oct 2014 (Local Time) from LEAS Reporting Station
Clear Clear  
Wind Chill: 59°   Ceiling: Unl
Heat Index: 59°   Visibility: 6mi
Dew Point: 45°   Wind: 8mph
Humidity: 59%   Direction: 240°WSW
Pressure: 30.24"   Gusts: NA
Location:  43.62°N, 5.79°W
Report Text: LEAS 230500Z 24007KT CAVOK 15/07 Q1024 NOSIG
Loading
Personal Weather Stations






























Interactive Weather Map
Tropical Storm Tracking
New forecast layout! Learn more

10-Day Weather Forecast

Advertisements
Track Severe Weather on mobile